Chilecito, Argentina
Current Conditions -  °F | °C
As of 1:00 AM on Sunday 23 Nov 2014 (Local Time) from SAME Reporting Station
Clear Clear  
Wind Chill: 70°   Ceiling: Unl
Heat Index: 70°   Visibility: 6mi
Dew Point: 39°   Wind: 6mph
Humidity: 33%   Direction: 320°NW
Pressure: 29.83"   Gusts: NA
Location:  33.53°S, 68.03°W
Report Text: SAME 230400Z 32005KT CAVOK 21/04 Q1010
Loading
Personal Weather Stations






























Interactive Weather Map New forecast layout! Learn more

10-Day Weather Forecast

Advertisements
Track Severe Weather on mobile